Time;durP1;ratioP1;P1;durP2;ratioP2;P2;SDS_P1;SDS_P2;PMS_P1;PMS_P2;Temp;Humidity;BMP_temperature;BMP_pressure;BME280_temperature;BME280_humidity;BME280_pressure;Samples;Min_cycle;Max_cycle;Signal;HPM_P1;HPM_P2
2022/05/04 00:00:56;;;;;;;;;;;;;;;10.46;98.65;99890.31;6152448;23;19917;-85
2022/05/04 00:03:22;;;;;;;;;;;;;;;10.50;97.66;99887.44;6152681;23;19988;-85
2022/05/04 00:05:48;;;;;;;;;;;;;;;10.52;97.79;99890.53;6152544;23;19948;-85
2022/05/04 00:08:14;;;;;;;;;;;;;;;10.51;97.71;99889.00;6152604;23;19913;-85
2022/05/04 00:10:39;;;;;;;;;;;;;;;10.57;98.39;99892.78;6152813;23;19950;-85
2022/05/04 00:13:04;;;;;;;;;;;;;;;10.66;99.23;99890.91;6151779;23;19923;-85
2022/05/04 00:15:30;;;;;;;;;;;;;;;10.69;100.00;99883.69;6153709;23;19912;-84
2022/05/04 00:17:55;;;;;;;;;;;;;;;10.74;100.00;99885.94;6152172;23;19923;-86
2022/05/04 00:20:21;;;;;;;;;;;;;;;10.72;100.00;99882.81;6151666;23;19912;-85
2022/05/04 00:22:46;;;;;;;;;;;;;;;10.67;100.00;99880.59;6152213;23;19916;-85
2022/05/04 00:25:11;;;;;;;;;;;;;;;10.64;100.00;99881.47;6127716;23;19951;-84
2022/05/04 00:27:37;;;;;;;;;;;;;;;10.63;100.00;99877.16;6152423;23;19953;-84
2022/05/04 00:30:03;;;;;;;;;;;;;;;10.65;100.00;99874.69;6152929;23;19959;-85
2022/05/04 00:32:29;;;;;;;;;;;;;;;10.69;100.00;99880.91;6152168;23;20366;-85
2022/05/04 00:34:54;;;;;;;;;;;;;;;10.76;100.00;99889.03;6151795;23;19908;-85
2022/05/04 00:37:19;;;;;;;;;;;;;;;10.75;100.00;99887.50;6152540;23;19935;-85
2022/05/04 00:39:47;;;;;;;;;;;;;;;10.61;100.00;99887.91;6153062;23;19908;-85
2022/05/04 00:42:13;;;;;;;;;;;;;;;10.24;100.00;99903.97;6152312;23;19917;-85
2022/05/04 00:44:39;;;;;;;;;;;;;;;10.18;100.00;99894.66;6152806;23;19916;-85
2022/05/04 00:47:04;;;;;;;;;;;;;;;10.15;100.00;99898.28;6152317;23;20409;-84
2022/05/04 00:49:30;;;;;;;;;;;;;;;10.11;100.00;99894.81;6152029;23;19916;-85
2022/05/04 00:51:55;;;;;;;;;;;;;;;10.12;100.00;99896.38;6152805;23;19920;-87
2022/05/04 00:54:21;;;;;;;;;;;;;;;10.20;100.00;99878.34;6153287;23;20327;-87
2022/05/04 00:56:46;;;;;;;;;;;;;;;10.17;100.00;99887.56;6152639;23;19955;-87
2022/05/04 00:59:11;;;;;;;;;;;;;;;10.13;100.00;99892.38;6128797;23;19913;-87
2022/05/04 01:01:37;;;;;;;;;;;;;;;10.17;100.00;99893.09;6154392;23;20254;-87
2022/05/04 01:04:04;;;;;;;;;;;;;;;10.19;100.00;99887.88;6127128;23;20366;-86
2022/05/04 01:06:30;;;;;;;;;;;;;;;10.26;100.00;99892.47;6128339;23;20291;-87
2022/05/04 01:08:55;;;;;;;;;;;;;;;10.25;100.00;99894.47;6128641;23;20377;-87
2022/05/04 01:11:21;;;;;;;;;;;;;;;10.19;100.00;99896.19;6152583;23;20035;-87
2022/05/04 01:13:59;;;;;;;;;;;;;;;10.26;100.00;99896.03;6153673;23;19923;-87
2022/05/04 01:16:25;;;;;;;;;;;;;;;10.31;100.00;99899.47;6154664;23;19912;-86
2022/05/04 01:18:50;;;;;;;;;;;;;;;10.34;100.00;99901.38;6101764;23;19916;-87
2022/05/04 01:21:16;;;;;;;;;;;;;;;10.38;100.00;99902.03;6127891;23;20317;-87
2022/05/04 01:23:41;;;;;;;;;;;;;;;10.35;100.00;99908.47;6154354;23;19916;-86
2022/05/04 01:26:07;;;;;;;;;;;;;;;10.34;100.00;99912.44;6152431;23;20378;-86
2022/05/04 01:28:32;;;;;;;;;;;;;;;10.29;100.00;99914.53;6128273;23;19923;-87
2022/05/04 01:30:59;;;;;;;;;;;;;;;10.32;100.00;99915.66;6154337;23;19954;-86
2022/05/04 01:33:25;;;;;;;;;;;;;;;10.28;100.00;99907.44;6151659;23;19999;-86
2022/05/04 01:35:50;;;;;;;;;;;;;;;10.25;100.00;99911.09;6154254;23;19991;-87
2022/05/04 01:38:16;;;;;;;;;;;;;;;10.20;100.00;99914.38;6127961;23;19924;-86
2022/05/04 01:40:41;;;;;;;;;;;;;;;10.18;100.00;99916.06;6153347;23;19976;-87
2022/05/04 01:43:07;;;;;;;;;;;;;;;10.15;100.00;99922.47;6153853;23;19916;-87
2022/05/04 01:45:32;;;;;;;;;;;;;;;10.20;100.00;99917.16;6153858;23;19991;-86
2022/05/04 01:47:57;;;;;;;;;;;;;;;10.26;100.00;99911.88;6153394;23;19912;-86
2022/05/04 01:50:23;;;;;;;;;;;;;;;10.33;100.00;99903.34;6153155;23;19920;-84
2022/05/04 01:52:48;;;;;;;;;;;;;;;10.33;100.00;99905.34;6153814;23;19912;-85
2022/05/04 01:55:14;;;;;;;;;;;;;;;10.41;100.00;99912.25;6127627;23;19913;-85
2022/05/04 01:57:39;;;;;;;;;;;;;;;10.43;100.00;99912.59;6152702;23;19909;-85
2022/05/04 02:00:05;;;;;;;;;;;;;;;10.47;100.00;99911.28;6153075;23;19912;-85
2022/05/04 02:02:40;;;;;;;;;;;;;;;10.42;100.00;99911.81;6152801;23;19991;-85
2022/05/04 02:05:05;;;;;;;;;;;;;;;10.49;100.00;99905.28;6128342;23;19948;-84
2022/05/04 02:07:33;;;;;;;;;;;;;;;10.51;100.00;99900.88;6153139;23;19912;-86
2022/05/04 02:09:58;;;;;;;;;;;;;;;10.55;100.00;99906.31;6127006;23;19940;-86
2022/05/04 02:12:23;;;;;;;;;;;;;;;10.50;100.00;99904.06;6154206;23;20220;-87
2022/05/04 02:14:49;;;;;;;;;;;;;;;10.46;100.00;99900.63;6103201;23;20251;-87
2022/05/04 02:17:15;;;;;;;;;;;;;;;10.38;100.00;99902.03;6126599;23;19959;-87
2022/05/04 02:19:40;;;;;;;;;;;;;;;10.26;100.00;99907.13;6154188;23;19916;-87
2022/05/04 02:22:05;;;;;;;;;;;;;;;10.02;100.00;99911.31;6152494;23;19919;-86
2022/05/04 02:24:30;;;;;;;;;;;;;;;9.95;100.00;99911.47;6151792;23;19916;-86
2022/05/04 02:26:56;;;;;;;;;;;;;;;9.87;100.00;99918.41;6154321;23;19996;-87
2022/05/04 02:29:21;;;;;;;;;;;;;;;9.84;100.00;99916.50;6156337;23;20232;-86
2022/05/04 02:31:47;;;;;;;;;;;;;;;9.87;100.00;99918.41;6126084;23;19931;-86
2022/05/04 02:34:12;;;;;;;;;;;;;;;9.90;100.00;99914.78;6153810;23;19919;-86
2022/05/04 02:39:21;;;;;;;;;;;;;;;9.94;100.00;99909.16;6151931;23;19927;-86
2022/05/04 02:41:48;;;;;;;;;;;;;;;9.93;100.00;99913.91;6153212;23;19920;-86
2022/05/04 02:44:14;;;;;;;;;;;;;;;9.94;100.00;99915.47;6153624;23;20238;-86
2022/05/04 02:46:39;;;;;;;;;;;;;;;9.96;100.00;99917.78;6127620;23;19948;-84
2022/05/04 02:49:04;;;;;;;;;;;;;;;9.99;100.00;99912.16;6152724;23;20358;-85
2022/05/04 02:51:30;;;;;;;;;;;;;;;9.95;100.00;99919.78;6153207;23;19917;-85
2022/05/04 02:53:55;;;;;;;;;;;;;;;9.97;100.00;99920.13;6101114;23;19991;-84
2022/05/04 02:56:21;;;;;;;;;;;;;;;9.95;100.00;99924.56;6153040;23;19959;-85
2022/05/04 02:58:49;;;;;;;;;;;;;;;9.91;100.00;99924.63;6153614;23;20725;-84
2022/05/04 03:03:59;;;;;;;;;;;;;;;10.04;100.00;99925.47;6129961;23;19964;-85
2022/05/04 03:06:24;;;;;;;;;;;;;;;10.06;100.00;99914.75;6152677;23;20279;-85
2022/05/04 03:08:50;;;;;;;;;;;;;;;10.08;100.00;99920.63;6153386;23;19983;-84
2022/05/04 03:13:59;;;;;;;;;;;;;;;10.14;100.00;99920.88;6152923;23;19916;-85
2022/05/04 03:16:25;;;;;;;;;;;;;;;10.14;100.00;99921.66;6153371;23;19998;-84
2022/05/04 03:18:50;;;;;;;;;;;;;;;10.13;100.00;99922.09;6152647;23;19912;-84
2022/05/04 03:21:16;;;;;;;;;;;;;;;10.13;100.00;99920.09;6152479;23;20235;-86
2022/05/04 03:23:41;;;;;;;;;;;;;;;10.16;100.00;99924.00;6152883;23;19913;-85
2022/05/04 03:26:09;;;;;;;;;;;;;;;10.14;100.00;99924.44;6152239;23;19963;-85
2022/05/04 03:28:34;;;;;;;;;;;;;;;10.13;100.00;99925.66;6152794;23;19916;-85
2022/05/04 03:31:00;;;;;;;;;;;;;;;10.17;100.00;99931.13;6152699;23;19916;-85
2022/05/04 03:33:25;;;;;;;;;;;;;;;10.11;100.00;99927.31;6153137;23;19928;-85
2022/05/04 03:35:51;;;;;;;;;;;;;;;10.08;100.00;99923.41;6152297;23;19916;-85
2022/05/04 03:38:17;;;;;;;;;;;;;;;10.09;100.00;99932.50;6152348;23;19912;-85
2022/05/04 03:40:42;;;;;;;;;;;;;;;10.09;100.00;99930.50;6126239;23;19947;-85
2022/05/04 03:43:08;;;;;;;;;;;;;;;10.10;100.00;99934.06;6151530;23;20327;-85
2022/05/04 03:45:33;;;;;;;;;;;;;;;10.06;100.00;99936.94;6153018;23;19913;-85
2022/05/04 03:47:58;;;;;;;;;;;;;;;9.99;100.00;99937.09;6152558;23;19948;-85
2022/05/04 03:50:24;;;;;;;;;;;;;;;9.96;100.00;99937.97;6152106;23;19912;-87
2022/05/04 03:52:49;;;;;;;;;;;;;;;9.99;100.00;99930.78;6152662;23;19920;-87
2022/05/04 03:55:14;;;;;;;;;;;;;;;10.06;100.00;99948.00;6126205;23;20018;-87
2022/05/04 03:57:40;;;;;;;;;;;;;;;10.12;100.00;99940.72;6101405;23;19912;-86
2022/05/04 04:00:05;;;;;;;;;;;;;;;10.09;100.00;99949.91;6125895;23;19918;-86
2022/05/04 04:02:31;;;;;;;;;;;;;;;10.09;100.00;99949.13;6152909;23;19920;-86
2022/05/04 04:04:56;;;;;;;;;;;;;;;10.09;100.00;99947.13;6152558;23;19913;-85
2022/05/04 04:07:21;;;;;;;;;;;;;;;9.88;100.00;99958.75;6125015;23;19936;-85
2022/05/04 04:09:47;;;;;;;;;;;;;;;9.65;100.00;99951.41;6153125;23;19912;-85
2022/05/04 04:12:12;;;;;;;;;;;;;;;9.59;100.00;99958.66;6151642;23;19912;-85
2022/05/04 04:14:37;;;;;;;;;;;;;;;9.57;100.00;99952.78;6125800;23;19916;-85
2022/05/04 04:17:03;;;;;;;;;;;;;;;9.57;100.00;99965.84;6152025;23;19984;-85
2022/05/04 04:19:28;;;;;;;;;;;;;;;9.58;100.00;99959.91;6152370;23;19913;-84
2022/05/04 04:21:55;;;;;;;;;;;;;;;9.65;100.00;99958.94;6153314;23;19963;-84
2022/05/04 04:24:21;;;;;;;;;;;;;;;9.71;100.00;99965.50;6152370;23;19913;-85
2022/05/04 04:26:46;;;;;;;;;;;;;;;9.77;100.00;99969.31;6152303;23;19916;-84
2022/05/04 04:29:11;;;;;;;;;;;;;;;9.83;100.00;99973.13;6126314;23;19943;-85
2022/05/04 04:31:37;;;;;;;;;;;;;;;9.88;100.00;99969.84;6151386;23;20398;-84
2022/05/04 04:34:02;;;;;;;;;;;;;;;9.91;100.00;99973.75;6150396;23;20335;-84
2022/05/04 04:36:28;;;;;;;;;;;;;;;9.99;100.00;99962.03;6151395;23;19923;-85
2022/05/04 04:38:53;;;;;;;;;;;;;;;10.06;100.00;99972.94;6153230;23;19916;-84
2022/05/04 04:41:19;;;;;;;;;;;;;;;10.15;100.00;99973.13;6152915;23;19912;-86
2022/05/04 04:43:44;;;;;;;;;;;;;;;10.21;100.00;99971.41;6150705;23;19991;-85
2022/05/04 04:46:10;;;;;;;;;;;;;;;10.33;100.00;99982.97;6149811;23;19920;-86
2022/05/04 04:48:35;;;;;;;;;;;;;;;10.40;100.00;99972.47;6123314;23;19944;-88
2022/05/04 04:51:00;;;;;;;;;;;;;;;10.51;100.00;99972.97;6150793;23;19916;-88
2022/05/04 04:53:26;;;;;;;;;;;;;;;10.65;100.00;99980.09;6098569;23;19960;-89
2022/05/04 04:55:51;;;;;;;;;;;;;;;10.75;100.00;99981.81;6148846;23;19915;-88
2022/05/04 04:58:16;;;;;;;;;;;;;;;10.87;100.00;99978.31;6148808;23;19996;-85
2022/05/04 05:00:42;;;;;;;;;;;;;;;10.95;100.00;99990.75;6148969;23;19912;-88
2022/05/04 05:03:07;;;;;;;;;;;;;;;11.05;100.00;99975.78;6148684;23;19916;-88
2022/05/04 05:05:32;;;;;;;;;;;;;;;11.18;100.00;99976.56;6150709;23;19912;-88
2022/05/04 05:07:58;;;;;;;;;;;;;;;11.30;100.00;99960.34;6148752;23;19916;-88
2022/05/04 05:10:23;;;;;;;;;;;;;;;11.43;100.00;99969.47;6100758;23;19920;-88
2022/05/04 05:12:50;;;;;;;;;;;;;;;11.58;100.00;99973.34;6151797;23;19913;-89
2022/05/04 05:18:01;;;;;;;;;;;;;;;11.91;100.00;99971.13;6152470;23;19936;-87
2022/05/04 05:20:26;;;;;;;;;;;;;;;12.10;100.00;99976.41;6127549;23;20656;-87
2022/05/04 05:22:52;;;;;;;;;;;;;;;12.32;100.00;99972.91;6153148;23;19919;-88
2022/05/04 05:25:17;;;;;;;;;;;;;;;12.47;100.00;99971.19;6102188;23;20379;-88
2022/05/04 05:27:43;;;;;;;;;;;;;;;12.58;100.00;99974.34;6125524;23;19923;-89
2022/05/04 05:30:08;;;;;;;;;;;;;;;12.73;100.00;99980.22;6152522;23;19915;-88
2022/05/04 05:32:34;;;;;;;;;;;;;;;12.87;100.00;99977.66;6152212;23;20291;-89
2022/05/04 05:34:59;;;;;;;;;;;;;;;13.09;100.00;99984.00;6152616;23;19991;-89
2022/05/04 05:37:24;;;;;;;;;;;;;;;13.26;100.00;99972.66;6155246;23;19916;-89
2022/05/04 05:39:50;;;;;;;;;;;;;;;13.31;100.00;99972.06;6152112;23;19912;-87
2022/05/04 05:42:15;;;;;;;;;;;;;;;13.44;100.00;99978.31;6124789;23;19913;-89
2022/05/04 05:44:41;;;;;;;;;;;;;;;13.48;99.72;99982.53;6127101;23;20006;-89
2022/05/04 05:47:06;;;;;;;;;;;;;;;13.67;100.00;99977.78;6153766;23;19987;-89
2022/05/04 05:49:32;;;;;;;;;;;;;;;13.86;99.16;99965.47;6128064;23;19939;-90
2022/05/04 05:51:57;;;;;;;;;;;;;;;14.02;98.44;99978.34;6154444;23;19912;-89
2022/05/04 05:54:22;;;;;;;;;;;;;;;14.27;96.96;99980.09;6152962;23;19991;-88
2022/05/04 05:56:48;;;;;;;;;;;;;;;14.46;94.51;99985.25;6153267;23;19913;-86
2022/05/04 05:59:13;;;;;;;;;;;;;;;14.56;93.19;99986.00;6152784;23;19920;-86
2022/05/04 06:01:39;;;;;;;;;;;;;;;14.75;92.10;99990.38;6126602;23;19916;-86
2022/05/04 06:04:07;;;;;;;;;;;;;;;14.97;91.78;99989.38;6153226;23;19912;-86
2022/05/04 06:06:33;;;;;;;;;;;;;;;15.19;91.39;99995.56;6154301;23;19934;-86
2022/05/04 06:08:58;;;;;;;;;;;;;;;15.47;89.10;99993.47;6154385;23;20330;-86
2022/05/04 06:11:23;;;;;;;;;;;;;;;15.49;87.64;99991.72;6153992;23;19917;-86
2022/05/04 06:13:55;;;;;;;;;;;;;;;15.40;87.36;100000.16;6154123;23;19916;-86
2022/05/04 06:16:20;;;;;;;;;;;;;;;15.59;85.29;99996.09;6154654;23;19912;-86
2022/05/04 06:18:45;;;;;;;;;;;;;;;15.65;85.50;100010.22;6103915;23;19919;-89
2022/05/04 06:21:11;;;;;;;;;;;;;;;15.73;84.90;99997.44;6127934;23;19923;-86
2022/05/04 06:23:36;;;;;;;;;;;;;;;15.62;85.38;100000.72;6154231;23;19963;-87
2022/05/04 06:26:02;;;;;;;;;;;;;;;15.80;84.28;100003.44;6153879;23;19913;-86
2022/05/04 06:28:27;;;;;;;;;;;;;;;16.04;81.52;99999.91;6153803;23;19923;-85
2022/05/04 06:36:21;;;;;;;;;;;;;;;16.56;77.39;99995.66;6106343;23;19912;-91
2022/05/04 06:38:47;;;;;;;;;;;;;;;16.81;76.33;100002.78;6077696;23;19917;-91
2022/05/04 06:41:13;;;;;;;;;;;;;;;16.58;77.54;100005.13;6102236;23;19913;-87
2022/05/04 06:43:38;;;;;;;;;;;;;;;16.30;80.14;100003.75;6078729;23;19916;-90
2022/05/04 06:46:04;;;;;;;;;;;;;;;16.60;80.36;100008.25;6152982;23;19913;-90
2022/05/04 06:48:30;;;;;;;;;;;;;;;16.70;77.68;100009.69;6077029;23;19912;-90
2022/05/04 06:50:55;;;;;;;;;;;;;;;16.93;76.28;100004.53;6102061;23;20251;-90
2022/05/04 06:53:20;;;;;;;;;;;;;;;16.97;75.65;100011.50;6124975;23;19908;-90
2022/05/04 06:55:46;;;;;;;;;;;;;;;16.89;76.48;100012.34;6126113;23;19967;-91
2022/05/04 06:58:11;;;;;;;;;;;;;;;17.34;75.06;100009.09;6125563;23;19908;-89
2022/05/04 07:00:36;;;;;;;;;;;;;;;17.68;73.25;100014.00;6152739;23;19912;-90
2022/05/04 07:03:02;;;;;;;;;;;;;;;17.94;68.62;100007.78;6125630;23;20400;-89
2022/05/04 07:05:27;;;;;;;;;;;;;;;17.85;70.33;100007.88;6101507;23;19969;-90
2022/05/04 07:07:53;;;;;;;;;;;;;;;18.14;67.63;100016.22;6152522;23;19991;-89
2022/05/04 07:10:18;;;;;;;;;;;;;;;18.24;66.57;100008.44;6125545;23;19921;-89
2022/05/04 07:12:44;;;;;;;;;;;;;;;18.27;66.78;100010.28;6150463;23;19912;-90
2022/05/04 07:15:09;;;;;;;;;;;;;;;18.32;64.96;100006.78;6101401;23;20315;-90
2022/05/04 07:17:35;;;;;;;;;;;;;;;18.40;66.18;100016.31;6077545;23;19920;-87
2022/05/04 07:20:00;;;;;;;;;;;;;;;18.67;66.09;100013.09;6151173;23;19908;-87
2022/05/04 07:22:25;;;;;;;;;;;;;;;18.77;65.44;100017.28;6101335;23;19920;-87
2022/05/04 07:24:51;;;;;;;;;;;;;;;19.01;64.59;100014.22;6125224;23;19908;-87
2022/05/04 07:27:16;;;;;;;;;;;;;;;19.30;62.93;100014.00;6151769;23;20129;-87
2022/05/04 07:29:46;;;;;;;;;;;;;;;19.12;63.08;100014.34;6125788;23;19959;-88
2022/05/04 07:32:12;;;;;;;;;;;;;;;19.28;62.36;100015.78;6101342;23;20011;-88
2022/05/04 07:34:37;;;;;;;;;;;;;;;19.53;62.42;100020.63;6102242;23;19940;-91
2022/05/04 07:37:03;;;;;;;;;;;;;;;19.85;60.85;100018.56;6149589;23;19916;-91
2022/05/04 07:42:22;;;;;;;;;;;;;;;20.30;61.00;100026.03;6149834;23;19959;-90
2022/05/04 07:44:47;;;;;;;;;;;;;;;20.45;59.97;100026.63;6127349;23;19927;-90
2022/05/04 07:47:13;;;;;;;;;;;;;;;20.68;58.29;100026.72;6125032;23;19909;-90
2022/05/04 07:49:38;;;;;;;;;;;;;;;20.41;58.07;100031.72;6152368;23;19916;-89
2022/05/04 07:52:03;;;;;;;;;;;;;;;20.38;57.58;100029.16;6151598;23;19918;-88
2022/05/04 07:54:29;;;;;;;;;;;;;;;20.62;58.31;100035.16;6101190;23;19912;-93
2022/05/04 07:56:55;;;;;;;;;;;;;;;20.58;56.42;100033.84;6099096;23;19913;-89
2022/05/04 07:59:20;;;;;;;;;;;;;;;20.63;55.31;100019.78;6123476;23;19923;-88
2022/05/04 08:04:29;;;;;;;;;;;;;;;20.94;54.60;100027.31;6102736;23;20527;-88
2022/05/04 08:06:54;;;;;;;;;;;;;;;20.86;55.22;100029.88;6099929;23;19912;-88
2022/05/04 08:09:20;;;;;;;;;;;;;;;20.93;56.09;100028.59;6123453;23;19909;-90
2022/05/04 08:11:45;;;;;;;;;;;;;;;21.15;55.54;100031.47;6100768;23;19916;-91
2022/05/04 08:14:12;;;;;;;;;;;;;;;21.19;55.02;100032.00;6100349;23;19936;-90
2022/05/04 08:16:39;;;;;;;;;;;;;;;21.30;54.14;100034.84;6125939;23;19955;-89
2022/05/04 08:19:04;;;;;;;;;;;;;;;21.52;53.96;100030.47;6151087;23;19916;-88
2022/05/04 08:21:30;;;;;;;;;;;;;;;21.61;52.88;100022.53;6125947;23;19916;-89
2022/05/04 08:23:55;;;;;;;;;;;;;;;21.80;51.57;100034.06;6124842;23;20327;-90
2022/05/04 08:26:20;;;;;;;;;;;;;;;21.98;50.02;100032.81;6125597;23;20537;-89
2022/05/04 08:28:46;;;;;;;;;;;;;;;22.08;49.58;100032.00;6151013;23;19912;-88
2022/05/04 08:31:11;;;;;;;;;;;;;;;22.16;49.85;100033.00;6124728;23;19913;-88
2022/05/04 08:33:37;;;;;;;;;;;;;;;22.10;50.16;100035.09;6150239;23;19912;-88
2022/05/04 08:36:02;;;;;;;;;;;;;;;22.32;49.28;100037.84;6100727;23;20259;-87
2022/05/04 08:38:28;;;;;;;;;;;;;;;22.39;44.89;100021.66;6100882;23;19924;-88
2022/05/04 08:40:54;;;;;;;;;;;;;;;22.39;44.63;100038.63;6125205;23;19912;-88
2022/05/04 08:43:24;;;;;;;;;;;;;;;22.90;42.97;100043.56;6151321;23;19951;-88
2022/05/04 08:45:50;;;;;;;;;;;;;;;23.05;43.32;100031.94;6150594;23;19920;-88
2022/05/04 08:48:16;;;;;;;;;;;;;;;22.98;42.40;100029.63;6150850;23;19916;-88
2022/05/04 08:50:41;;;;;;;;;;;;;;;23.21;41.79;100026.13;6151372;23;19936;-89
2022/05/04 08:53:08;;;;;;;;;;;;;;;23.32;42.73;100033.81;6124764;23;19952;-89
2022/05/04 08:55:34;;;;;;;;;;;;;;;23.47;41.28;100028.56;6124141;23;19917;-88
2022/05/04 08:57:59;;;;;;;;;;;;;;;23.50;41.07;100030.34;6100966;23;19963;-88
2022/05/04 09:00:25;;;;;;;;;;;;;;;23.58;41.06;100028.47;6099402;23;19912;-88
2022/05/04 09:02:50;;;;;;;;;;;;;;;23.35;40.01;100032.75;6100660;23;20376;-88
2022/05/04 09:05:23;;;;;;;;;;;;;;;23.58;40.87;100027.69;6150628;23;19916;-88
2022/05/04 09:07:50;;;;;;;;;;;;;;;23.80;39.16;100029.56;6126068;23;19912;-88
2022/05/04 09:10:16;;;;;;;;;;;;;;;23.93;39.02;100024.81;6124967;23;19908;-89
2022/05/04 09:12:43;;;;;;;;;;;;;;;23.79;38.14;100031.63;6151547;23;19920;-89
2022/05/04 09:15:16;;;;;;;;;;;;;;;23.92;39.80;100026.13;6150233;23;19916;-88
2022/05/04 09:17:41;;;;;;;;;;;;;;;24.04;38.88;100024.72;6101450;23;20361;-88
2022/05/04 09:22:51;;;;;;;;;;;;;;;23.94;38.98;100015.00;6152895;23;19920;-88
2022/05/04 09:25:18;;;;;;;;;;;;;;;23.95;37.57;100022.22;6153338;23;19908;-88
2022/05/04 09:27:46;;;;;;;;;;;;;;;24.29;37.58;100019.06;6152788;23;19916;-89
2022/05/04 09:30:12;;;;;;;;;;;;;;;24.55;37.11;100020.03;6126039;23;19912;-89
2022/05/04 09:32:38;;;;;;;;;;;;;;;24.63;36.36;100023.03;6153237;23;19917;-89
2022/05/04 09:35:04;;;;;;;;;;;;;;;24.30;36.78;100018.53;6102560;23;19979;-89
2022/05/04 09:45:54;;;;;;;;;;;;;;;24.68;35.82;100012.91;6130759;23;19927;-88
2022/05/04 09:48:35;;;;;;;;;;;;;;;24.84;34.99;100014.75;6102028;23;19963;-89
2022/05/04 09:51:05;;;;;;;;;;;;;;;25.05;35.40;100013.72;6126917;23;19991;-89
2022/05/04 09:53:31;;;;;;;;;;;;;;;25.25;33.03;100015.22;6152287;23;19959;-89
2022/05/04 09:55:57;;;;;;;;;;;;;;;24.91;33.05;100008.53;6153079;23;19912;-88
2022/05/04 09:58:24;;;;;;;;;;;;;;;24.95;33.80;100004.03;6126720;23;19913;-88
2022/05/04 10:00:51;;;;;;;;;;;;;;;25.12;33.79;99998.13;6126396;23;19916;-89
2022/05/04 10:03:18;;;;;;;;;;;;;;;24.55;32.07;99999.41;6126411;23;19912;-88
2022/05/04 10:05:45;;;;;;;;;;;;;;;24.00;32.44;100000.78;6127331;23;19998;-88
2022/05/04 10:08:11;;;;;;;;;;;;;;;24.04;32.93;100001.28;6152888;23;19912;-88
2022/05/04 10:10:36;;;;;;;;;;;;;;;24.41;34.36;99998.56;6126183;23;19927;-88
2022/05/04 10:13:02;;;;;;;;;;;;;;;24.61;35.42;99986.72;6126841;23;20241;-89
2022/05/04 10:15:27;;;;;;;;;;;;;;;24.86;34.64;99990.25;6125236;23;19922;-88
2022/05/04 10:18:04;;;;;;;;;;;;;;;24.98;33.28;99985.97;6126945;23;19916;-88
2022/05/04 10:20:41;;;;;;;;;;;;;;;24.84;33.12;99975.03;6126268;23;19916;-88
2022/05/04 10:23:17;;;;;;;;;;;;;;;24.67;33.56;99983.78;6101755;23;19912;-89
2022/05/04 10:25:43;;;;;;;;;;;;;;;24.60;32.55;99982.31;6128747;23;19928;-89
2022/05/04 10:28:10;;;;;;;;;;;;;;;24.64;33.52;99982.03;6128555;23;19919;-87
2022/05/04 10:30:38;;;;;;;;;;;;;;;24.83;32.59;99971.44;6154504;23;19912;-88
2022/05/04 10:33:08;;;;;;;;;;;;;;;25.08;33.10;99972.13;6128468;23;20003;-88
2022/05/04 10:35:43;;;;;;;;;;;;;;;25.33;32.63;99964.25;6154422;23;19944;-88
2022/05/04 10:38:11;;;;;;;;;;;;;;;24.92;33.54;99970.31;6154275;23;19920;-89
2022/05/04 10:40:43;;;;;;;;;;;;;;;25.22;33.26;99962.38;6127997;23;19979;-89
2022/05/04 10:43:16;;;;;;;;;;;;;;;25.07;32.89;99962.09;6128873;23;19913;-88
2022/05/04 10:45:45;;;;;;;;;;;;;;;25.04;32.67;99966.78;6153875;23;19983;-88
2022/05/04 10:48:14;;;;;;;;;;;;;;;24.68;32.80;99962.63;6154180;23;19918;-89
2022/05/04 10:51:06;;;;;;;;;;;;;;;24.94;32.55;99953.53;6154468;23;19912;-89
2022/05/04 10:53:31;;;;;;;;;;;;;;;24.90;32.92;99965.19;6121470;23;19962;-90
2022/05/04 10:56:00;;;;;;;;;;;;;;;24.96;33.35;99960.19;6127784;23;20359;-88
2022/05/04 10:58:33;;;;;;;;;;;;;;;25.03;33.92;99948.19;6127893;23;19924;-89
2022/05/04 11:01:02;;;;;;;;;;;;;;;25.24;33.28;99944.78;6153307;23;19991;-89
2022/05/04 11:03:32;;;;;;;;;;;;;;;25.02;33.16;99949.53;6128179;23;19924;-89
2022/05/04 11:05:58;;;;;;;;;;;;;;;24.81;33.10;99954.19;6104257;23;20329;-88
2022/05/04 11:08:25;;;;;;;;;;;;;;;24.84;33.66;99944.59;6128184;23;19909;-88
2022/05/04 11:10:51;;;;;;;;;;;;;;;25.14;33.31;99943.69;6128552;23;19913;-89
2022/05/04 11:13:16;;;;;;;;;;;;;;;25.03;32.12;99942.53;6127670;23;19999;-89
2022/05/04 11:15:52;;;;;;;;;;;;;;;24.85;33.77;99937.66;6128059;23;19944;-88
2022/05/04 11:18:21;;;;;;;;;;;;;;;25.24;32.11;99930.59;6154017;23;19916;-89
2022/05/04 11:20:46;;;;;;;;;;;;;;;25.53;32.05;99926.75;6154097;23;20014;-89
2022/05/04 11:23:21;;;;;;;;;;;;;;;25.68;31.26;99927.00;6126557;23;20331;-88
2022/05/04 11:25:50;;;;;;;;;;;;;;;25.45;31.18;99937.19;6153776;23;19912;-88
2022/05/04 11:28:34;;;;;;;;;;;;;;;25.20;29.98;99927.31;6153956;23;19917;-89
2022/05/04 11:30:59;;;;;;;;;;;;;;;25.28;30.33;99934.66;6154072;23;19916;-88
2022/05/04 11:33:25;;;;;;;;;;;;;;;25.15;29.90;99926.13;6153546;23;19912;-89
2022/05/04 11:35:51;;;;;;;;;;;;;;;25.42;29.83;99932.63;6154087;23;19923;-89
2022/05/04 11:38:17;;;;;;;;;;;;;;;25.66;30.35;99923.19;6126585;23;20355;-89
2022/05/04 11:40:44;;;;;;;;;;;;;;;25.74;28.94;99924.84;6153092;23;19912;-88
2022/05/04 11:43:10;;;;;;;;;;;;;;;24.85;29.02;99923.47;6103022;23;19916;-89
2022/05/04 11:45:35;;;;;;;;;;;;;;;25.35;29.95;99922.69;6127545;23;19956;-89
2022/05/04 11:48:01;;;;;;;;;;;;;;;25.37;29.52;99919.28;6153840;23;19923;-89
2022/05/04 11:50:26;;;;;;;;;;;;;;;25.41;28.30;99914.81;6127572;23;19970;-89
2022/05/04 11:52:52;;;;;;;;;;;;;;;25.70;29.14;99913.03;6153382;23;19916;-89
2022/05/04 11:55:18;;;;;;;;;;;;;;;25.76;28.59;99913.69;6153727;23;19916;-90
2022/05/04 11:57:44;;;;;;;;;;;;;;;25.67;28.32;99911.28;6153843;23;19936;-88
2022/05/04 12:00:16;;;;;;;;;;;;;;;25.87;28.28;99907.03;6153077;23;19908;-89
2022/05/04 12:02:42;;;;;;;;;;;;;;;25.88;28.87;99900.03;6125178;23;20000;-88
2022/05/04 12:05:07;;;;;;;;;;;;;;;25.63;28.00;99898.72;6151224;23;19952;-89
2022/05/04 12:07:32;;;;;;;;;;;;;;;26.07;28.60;99897.84;6125106;23;19920;-89
2022/05/04 12:09:58;;;;;;;;;;;;;;;26.26;27.88;99898.50;6151361;23;19920;-89
2022/05/04 12:12:23;;;;;;;;;;;;;;;26.29;27.91;99893.78;6124901;23;19923;-89
2022/05/04 12:14:53;;;;;;;;;;;;;;;26.13;28.55;99892.03;6151457;23;19913;-89
2022/05/04 12:17:23;;;;;;;;;;;;;;;26.08;27.81;99890.06;6126690;23;20003;-89
2022/05/04 12:19:49;;;;;;;;;;;;;;;25.31;27.88;99888.16;6153617;23;19923;-89
2022/05/04 12:22:14;;;;;;;;;;;;;;;25.10;28.45;99883.63;6152454;23;19909;-89
2022/05/04 12:24:42;;;;;;;;;;;;;;;25.26;29.53;99886.19;6127435;23;19912;-89
2022/05/04 12:27:07;;;;;;;;;;;;;;;25.19;29.37;99883.22;6127600;23;19916;-88
2022/05/04 12:35:01;;;;;;;;;;;;;;;24.71;29.88;99873.63;6131919;23;20010;-89
2022/05/04 12:37:32;;;;;;;;;;;;;;;24.89;30.35;99874.94;6127828;23;19920;-89
2022/05/04 12:39:59;;;;;;;;;;;;;;;25.25;30.02;99872.53;6103302;23;19919;-89
2022/05/04 12:42:24;;;;;;;;;;;;;;;25.52;29.19;99874.06;6126457;23;19912;-89
2022/05/04 12:44:50;;;;;;;;;;;;;;;25.78;28.65;99859.94;6077549;23;19971;-87
2022/05/04 12:47:15;;;;;;;;;;;;;;;25.86;29.30;99855.13;6150163;23;19912;-87
2022/05/04 12:49:42;;;;;;;;;;;;;;;26.02;28.33;99849.63;6149491;23;19924;-88
2022/05/04 12:52:08;;;;;;;;;;;;;;;25.68;27.86;99841.78;6124582;23;19912;-89
2022/05/04 12:54:33;;;;;;;;;;;;;;;25.37;28.53;99853.97;6149656;23;19966;-89
2022/05/04 12:56:58;;;;;;;;;;;;;;;25.15;28.86;99848.72;6151677;23;20357;-89
2022/05/04 12:59:24;;;;;;;;;;;;;;;25.38;28.33;99841.31;6151600;23;19934;-89
2022/05/04 13:01:49;;;;;;;;;;;;;;;25.43;28.83;99843.28;6151110;23;20347;-89
2022/05/04 13:04:15;;;;;;;;;;;;;;;25.60;28.85;99840.16;6149277;23;19959;-89
2022/05/04 13:06:41;;;;;;;;;;;;;;;24.95;29.32;99850.09;6151705;23;19940;-90
2022/05/04 13:09:07;;;;;;;;;;;;;;;25.18;29.20;99841.94;6151105;23;20293;-89
2022/05/04 13:11:32;;;;;;;;;;;;;;;24.94;29.60;99837.97;6149438;23;19963;-88
2022/05/04 13:13:58;;;;;;;;;;;;;;;24.83;30.05;99835.25;6125184;23;19920;-87